Time;durP1;ratioP1;P1;durP2;ratioP2;P2;SDS_P1;SDS_P2;PMS_P1;PMS_P2;Temp;Humidity;BMP_temperature;BMP_pressure;BME280_temperature;BME280_humidity;BME280_pressure;Samples;Min_cycle;Max_cycle;Signal;HPM_P1;HPM_P2
2023/06/29 00:02:25;;;;;;;6.70;3.22;;;;;;;-144.47;70.62;52619.75;5067562;28;20032;-70
2023/06/29 00:04:53;;;;;;;11.60;3.58;;;;;;;-144.47;68.98;52599.88;5067196;28;20035;-68
2023/06/29 00:07:19;;;;;;;7.05;3.28;;;;;;;-144.47;69.81;52625.72;5067227;28;20108;-67
2023/06/29 00:09:44;;;;;;;9.02;3.58;;;;;;;-144.47;70.61;52641.59;5068909;28;20100;-69
2023/06/29 00:12:10;;;;;;;13.20;3.10;;;;;;;-144.47;70.69;52647.56;5068152;28;20095;-69
2023/06/29 00:14:35;;;;;;;8.48;3.13;;;;;;;-144.47;70.97;52633.66;5068155;28;20607;-72
2023/06/29 00:17:00;;;;;;;7.63;3.33;;;;;;;-144.47;71.63;52633.66;5077722;22;20071;-73
2023/06/29 00:19:26;;;;;;;7.38;3.13;;;;;;;-144.47;72.51;52625.72;5069934;28;20021;-71
2023/06/29 00:21:51;;;;;;;6.53;3.00;;;;;;;-144.47;73.21;52647.56;5070767;28;20450;-70
2023/06/29 00:24:16;;;;;;;14.27;3.30;;;;;;;-144.47;74.00;52629.69;5070203;28;20459;-70
2023/06/29 00:26:42;;;;;;;15.45;3.83;;;;;;;-144.47;74.28;52615.78;5070510;28;20040;-70
2023/06/29 00:29:07;;;;;;;7.32;3.05;;;;;;;-144.47;73.85;52647.56;5070620;28;20020;-69
2023/06/29 00:31:32;;;;;;;9.18;3.67;;;;;;;-144.47;74.34;52621.72;5056775;28;20017;-67
2023/06/29 00:33:58;;;;;;;6.28;3.42;;;;;;;-144.47;74.32;52613.78;5057347;28;20032;-67
2023/06/29 00:36:23;;;;;;;6.57;3.60;;;;;;;-144.47;74.38;52649.53;5051058;28;20143;-68
2023/06/29 00:38:49;;;;;;;10.63;3.85;;;;;;;-144.47;73.78;52649.53;5062251;28;20556;-70
2023/06/29 00:41:14;;;;;;;11.45;3.65;;;;;;;-144.47;73.59;52643.56;5070429;28;20414;-70
2023/06/29 00:43:45;;;;;;;8.43;3.40;;;;;;;-144.47;73.19;52615.78;5070312;28;20020;-70
2023/06/29 00:46:12;;;;;;;8.77;3.63;;;;;;;-144.47;73.40;52637.63;5070263;28;20024;-74
2023/06/29 00:48:38;;;;;;;5.68;3.47;;;;;;;-144.47;73.76;52645.56;5062035;28;20021;-70
2023/06/29 00:51:05;;;;;;;9.27;3.13;;;;;;;-144.47;73.90;52621.72;5051126;28;20083;-70
2023/06/29 00:53:31;;;;;;;7.07;3.72;;;;;;;-144.47;74.01;52643.56;5061324;28;20033;-69
2023/06/29 00:55:58;;;;;;;9.02;3.38;;;;;;;-144.47;73.83;52625.72;5065561;28;20112;-70
2023/06/29 00:58:24;;;;;;;8.60;3.40;;;;;;;-144.47;73.39;52629.69;5059014;28;20025;-69
2023/06/29 01:00:50;;;;;;;6.57;3.10;;;;;;;-144.47;74.09;52629.69;5062705;28;20028;-68
2023/06/29 01:03:15;;;;;;;7.90;3.20;;;;;;;-144.47;72.80;52629.69;5059215;28;20019;-68
2023/06/29 01:05:41;;;;;;;9.15;3.63;;;;;;;-144.47;71.42;52629.69;5053590;28;20032;-71
2023/06/29 01:08:18;;;;;;;14.07;3.33;;;;;;;-144.47;72.75;52637.63;5059168;28;20405;-70
2023/06/29 01:10:46;;;;;;;7.95;3.17;;;;;;;-144.47;73.64;52665.44;5069565;28;20317;-70
2023/06/29 01:13:13;;;;;;;9.63;4.10;;;;;;;-144.47;73.87;52615.78;5069447;28;20025;-70
2023/06/29 01:15:40;;;;;;;7.10;2.70;;;;;;;-144.47;75.78;52637.63;5061463;28;20387;-72
2023/06/29 01:18:07;;;;;;;12.90;3.55;;;;;;;-144.47;76.32;52611.81;5053816;28;20132;-71
2023/06/29 01:20:33;;;;;;;7.93;3.28;;;;;;;-144.47;77.16;52633.66;5067784;28;20434;-73
2023/06/29 01:23:03;;;;;;;8.25;4.20;;;;;;;-144.47;77.12;52631.66;5058041;28;20501;-69
2023/06/29 01:25:29;;;;;;;10.60;3.63;;;;;;;-144.47;76.64;52631.66;5062399;28;20052;-69
2023/06/29 01:27:55;;;;;;;10.98;3.72;;;;;;;-144.47;77.42;52645.56;5062206;28;20029;-71
2023/06/29 01:30:21;;;;;;;7.20;3.55;;;;;;;-144.47;77.30;52647.56;5050481;28;20071;-70
2023/06/29 01:32:47;;;;;;;9.52;3.55;;;;;;;-144.47;77.56;52617.75;5060340;28;20025;-70
2023/06/29 01:35:12;;;;;;;13.80;4.03;;;;;;;-144.47;78.09;52629.69;5053556;28;20119;-69
2023/06/29 01:38:07;;;;;;;9.57;4.15;;;;;;;-144.47;78.49;52635.63;5057610;28;20086;-71
2023/06/29 01:40:35;;;;;;;9.23;4.10;;;;;;;-144.47;79.88;52655.50;5047528;28;20278;-70
2023/06/29 01:43:01;;;;;;;18.65;4.70;;;;;;;-144.47;80.15;52629.69;5055576;28;20554;-70
2023/06/29 01:45:27;;;;;;;11.35;4.78;;;;;;;-144.47;81.90;52613.78;5058818;28;20040;-70
2023/06/29 01:47:55;;;;;;;11.88;4.20;;;;;;;-144.47;82.69;52637.63;5065798;28;20021;-70
2023/06/29 01:50:20;;;;;;;20.50;3.97;;;;;;;-144.47;84.46;52647.56;5059276;28;20062;-67
2023/06/29 01:52:46;;;;;;;9.63;4.13;;;;;;;-144.47;85.90;52637.63;5064348;28;20557;-69
2023/06/29 01:55:11;;;;;;;12.32;3.85;;;;;;;-144.47;86.62;52637.63;5059277;28;20398;-73
2023/06/29 01:57:37;;;;;;;18.45;3.50;;;;;;;-144.47;87.12;52651.53;5064902;28;20020;-70
2023/06/29 02:00:03;;;;;;;12.50;4.25;;;;;;;-144.47;86.28;52635.63;5059175;28;20382;-70
2023/06/29 02:02:30;;;;;;;11.77;3.92;;;;;;;-144.47;86.35;52651.53;5051758;28;20489;-68
2023/06/29 02:04:55;;;;;;;8.05;3.90;;;;;;;-144.47;87.21;52645.56;5068830;28;20690;-69
2023/06/29 02:07:21;;;;;;;10.80;4.13;;;;;;;-144.47;88.06;52635.63;5065856;28;20199;-70
2023/06/29 02:09:46;;;;;;;11.52;5.50;;;;;;;-144.47;89.25;52631.66;5058889;28;20020;-71
2023/06/29 02:12:12;;;;;;;19.45;8.00;;;;;;;-144.47;89.99;52629.69;5068406;28;20017;-70
2023/06/29 02:14:38;;;;;;;12.43;7.13;;;;;;;-144.47;90.67;52619.75;5058243;28;20029;-69
2023/06/29 02:17:03;;;;;;;12.43;6.40;;;;;;;-144.47;91.62;52633.66;5051299;28;20158;-70
2023/06/29 02:19:28;;;;;;;16.73;6.03;;;;;;;-144.47;91.59;52651.53;5061593;28;20024;-70
2023/06/29 02:21:54;;;;;;;12.98;5.20;;;;;;;-144.47;92.25;52647.56;5055043;28;20498;-70
2023/06/29 02:24:19;;;;;;;13.13;4.70;;;;;;;-144.47;92.78;52651.53;5068433;28;20496;-70
2023/06/29 02:26:45;;;;;;;10.80;5.25;;;;;;;-144.47;92.99;52621.72;5068215;28;20482;-69
2023/06/29 02:29:10;;;;;;;14.55;4.65;;;;;;;-144.47;93.26;52669.41;5058024;28;20064;-70
2023/06/29 02:31:35;;;;;;;11.50;3.95;;;;;;;-144.47;93.51;52663.44;5062819;28;20031;-72
2023/06/29 02:34:01;;;;;;;19.63;4.53;;;;;;;-144.47;93.63;52653.50;5046692;28;20497;-71
2023/06/29 02:36:26;;;;;;;10.30;4.28;;;;;;;-144.47;94.00;52647.56;5050179;28;20541;-71
2023/06/29 02:38:51;;;;;;;9.23;4.13;;;;;;;-144.47;93.92;52643.56;5052296;28;20020;-72
2023/06/29 02:41:17;;;;;;;9.25;4.28;;;;;;;-144.47;94.52;52657.47;5064908;28;20020;-72
2023/06/29 02:43:42;;;;;;;11.23;4.80;;;;;;;-144.47;94.34;52657.47;5052044;28;20045;-71
2023/06/29 02:46:08;;;;;;;12.05;4.20;;;;;;;-144.47;94.13;52655.50;5053181;28;20017;-69
2023/06/29 02:48:33;;;;;;;10.63;4.40;;;;;;;-144.47;94.52;52641.59;5063825;28;20048;-71
2023/06/29 02:50:59;;;;;;;8.02;4.15;;;;;;;-144.47;95.06;52645.56;5051591;28;20608;-72
2023/06/29 02:53:24;;;;;;;9.68;3.58;;;;;;;-144.47;94.93;52661.44;5052325;28;20104;-68
2023/06/29 02:55:49;;;;;;;7.70;3.95;;;;;;;-144.47;95.00;52637.63;5052356;28;20131;-72
2023/06/29 02:58:15;;;;;;;8.73;3.90;;;;;;;-144.47;95.76;52649.53;5064477;28;20106;-72
2023/06/29 03:00:40;;;;;;;12.45;4.05;;;;;;;-144.47;96.36;52651.53;5065170;28;20489;-70
2023/06/29 03:03:06;;;;;;;11.10;4.10;;;;;;;-144.47;96.12;52661.44;5051745;28;20421;-74
2023/06/29 03:05:31;;;;;;;7.20;3.33;;;;;;;-144.47;96.02;52661.44;5063443;28;20071;-72
2023/06/29 03:07:56;;;;;;;8.98;3.80;;;;;;;-144.47;96.36;52657.47;5058894;28;20023;-70
2023/06/29 03:10:22;;;;;;;9.80;4.03;;;;;;;-144.47;96.63;52653.50;5057857;28;20060;-70
2023/06/29 03:12:47;;;;;;;15.25;4.35;;;;;;;-144.47;96.71;52657.47;5071585;28;20105;-73
2023/06/29 03:15:13;;;;;;;10.82;4.50;;;;;;;-144.47;96.88;52653.50;5056457;28;20117;-70
2023/06/29 03:17:38;;;;;;;11.07;4.28;;;;;;;-144.47;97.58;52645.56;5047854;28;20033;-69
2023/06/29 03:20:06;;;;;;;16.23;5.05;;;;;;;-144.47;97.42;52655.50;5052283;28;20064;-71
2023/06/29 03:22:32;;;;;;;14.13;4.00;;;;;;;-144.47;96.91;52663.44;5063598;28;20021;-70
2023/06/29 03:24:57;;;;;;;11.65;4.53;;;;;;;-144.47;97.26;52643.56;5065715;28;20035;-66
2023/06/29 03:27:23;;;;;;;14.73;7.00;;;;;;;-144.47;97.31;52655.50;5071071;28;20780;-70
2023/06/29 03:29:50;;;;;;;16.55;4.90;;;;;;;-144.47;97.75;52639.59;5057698;28;20031;-70
2023/06/29 03:32:15;;;;;;;12.45;4.25;;;;;;;-144.47;97.91;52657.47;5070968;28;20037;-68
2023/06/29 03:34:41;;;;;;;14.80;3.92;;;;;;;-144.47;97.79;52663.44;5053055;28;20475;-71
2023/06/29 03:37:07;;;;;;;11.07;3.42;;;;;;;-144.47;98.09;52633.66;5062832;28;20440;-69
2023/06/29 03:39:32;;;;;;;8.23;3.78;;;;;;;-144.47;97.71;52639.59;5050573;28;20104;-71
2023/06/29 03:41:57;;;;;;;12.15;3.60;;;;;;;-144.47;97.46;52641.59;5052349;28;20076;-68
2023/06/29 03:44:23;;;;;;;10.27;3.25;;;;;;;-144.47;97.35;52653.50;5065931;28;20073;-68
2023/06/29 03:46:48;;;;;;;14.68;3.50;;;;;;;-144.47;97.18;52657.47;5063828;28;20036;-69
2023/06/29 03:49:13;;;;;;;7.93;2.90;;;;;;;-144.47;97.13;52659.47;5051657;28;20039;-70
2023/06/29 03:51:39;;;;;;;7.97;3.30;;;;;;;-144.47;96.97;52651.53;5063548;28;20102;-73
2023/06/29 03:54:04;;;;;;;10.82;3.25;;;;;;;-144.47;97.22;52647.56;5063935;28;20024;-70
2023/06/29 03:56:31;;;;;;;13.07;3.45;;;;;;;-144.47;97.04;52645.56;5063555;28;20024;-71
2023/06/29 03:58:57;;;;;;;13.93;3.60;;;;;;;-144.47;96.77;52629.69;5051063;28;20477;-67
2023/06/29 04:01:22;;;;;;;16.95;3.45;;;;;;;-144.47;97.19;52669.41;5063237;28;20035;-70
2023/06/29 04:03:48;;;;;;;6.95;2.90;;;;;;;-144.47;96.94;52633.66;5050487;28;20024;-72
2023/06/29 04:06:13;;;;;;;7.95;3.10;;;;;;;-144.47;96.96;52653.50;5058031;28;20020;-71
2023/06/29 04:08:38;;;;;;;10.88;3.90;;;;;;;-144.47;96.16;52651.53;5056805;28;20024;-70
2023/06/29 04:11:04;;;;;;;11.02;3.30;;;;;;;-144.47;96.46;52663.44;5050482;28;20390;-72
2023/06/29 04:13:29;;;;;;;8.20;2.80;;;;;;;-144.47;95.79;52669.41;5063860;28;20379;-74
2023/06/29 04:15:55;;;;;;;15.27;3.33;;;;;;;-144.47;95.63;52645.56;5030363;28;20041;-69
2023/06/29 04:18:20;;;;;;;13.38;4.25;;;;;;;-144.47;95.35;52637.63;5043713;28;20032;-70
2023/06/29 04:20:46;;;;;;;12.35;3.83;;;;;;;-144.47;95.30;52641.59;5056411;28;20077;-66
2023/06/29 04:23:14;;;;;;;12.05;3.53;;;;;;;-144.47;95.30;52663.44;5070279;28;20020;-69
2023/06/29 04:25:42;;;;;;;10.80;3.65;;;;;;;-144.47;94.64;52633.66;5056040;28;20500;-70
2023/06/29 04:28:08;;;;;;;7.40;3.08;;;;;;;-144.47;94.73;52637.63;5070672;28;20055;-69
2023/06/29 04:30:36;;;;;;;8.30;3.30;;;;;;;-144.47;94.56;52639.59;5044501;28;20059;-70
2023/06/29 04:33:09;;;;;;;10.68;2.97;;;;;;;-144.47;94.19;52647.56;5054242;28;20033;-70
2023/06/29 04:35:41;;;;;;;11.00;2.90;;;;;;;-144.47;93.42;52617.75;5056721;28;20039;-70
2023/06/29 04:38:10;;;;;;;15.45;3.13;;;;;;;-144.47;92.72;52645.56;5057911;28;20086;-70
2023/06/29 04:40:38;;;;;;;;;;;;;;;-144.47;92.09;52663.44;5070913;28;20456;-71
2023/06/29 04:43:06;;;;;;;7.78;2.75;;;;;;;-144.47;91.39;52673.38;5068437;28;19908;-70
2023/06/29 04:45:31;;;;;;;10.98;2.83;;;;;;;-144.47;90.81;52661.44;5069804;28;20025;-70
2023/06/29 04:47:58;;;;;;;18.85;3.10;;;;;;;-144.47;90.37;52643.56;5056597;28;20032;-70
2023/06/29 04:50:31;;;;;;;6.97;3.00;;;;;;;-144.47;90.45;52639.59;5062876;28;20496;-70
2023/06/29 04:52:58;;;;;;;9.20;2.50;;;;;;;-144.47;90.25;52651.53;5066619;28;20032;-68
2023/06/29 04:55:24;;;;;;;9.98;3.35;;;;;;;-144.47;89.78;52643.56;5056974;28;20484;-71
2023/06/29 04:57:50;;;;;;;17.10;4.68;;;;;;;-144.47;90.08;52657.47;5053761;28;20024;-67
2023/06/29 05:00:16;;;;;;;16.10;4.35;;;;;;;-144.47;89.88;52629.69;5057396;28;20035;-68
2023/06/29 05:02:42;;;;;;;12.23;3.45;;;;;;;-144.47;89.91;52641.59;5067000;28;20100;-70
2023/06/29 05:05:08;;;;;;;8.52;3.30;;;;;;;-144.47;89.01;52647.56;5057666;28;20068;-70
2023/06/29 05:07:34;;;;;;;19.55;3.33;;;;;;;-144.47;88.68;52645.56;5067449;28;20024;-70
2023/06/29 05:10:00;;;;;;;5.80;2.40;;;;;;;-144.47;87.57;52637.63;5059520;28;20552;-69
2023/06/29 05:12:28;;;;;;;8.80;2.97;;;;;;;-144.47;86.52;52633.66;5051741;28;20064;-72
2023/06/29 05:14:53;;;;;;;7.60;2.72;;;;;;;-144.47;85.76;52647.56;5049008;28;20423;-70
2023/06/29 05:17:19;;;;;;;9.65;2.45;;;;;;;-144.47;85.92;52649.53;5051179;28;20046;-71
2023/06/29 05:19:44;;;;;;;8.57;2.83;;;;;;;-144.47;86.05;52643.56;5058443;28;20102;-70
2023/06/29 05:22:10;;;;;;;7.00;2.97;;;;;;;-144.47;86.43;52657.47;5048212;28;20029;-70
2023/06/29 05:24:37;;;;;;;7.05;2.85;;;;;;;-144.47;86.46;52629.69;5050451;28;20070;-68
2023/06/29 05:27:03;;;;;;;11.43;3.20;;;;;;;-144.47;85.35;52649.53;5062151;28;20025;-70
2023/06/29 05:29:28;;;;;;;9.52;2.53;;;;;;;-144.47;84.19;52647.56;5049451;28;20463;-69
2023/06/29 05:31:54;;;;;;;6.25;2.78;;;;;;;-144.47;84.08;52629.69;5059783;28;20096;-71
2023/06/29 05:34:19;;;;;;;9.23;2.58;;;;;;;-144.47;84.89;52649.53;5050920;28;20363;-70
2023/06/29 05:36:44;;;;;;;10.93;3.08;;;;;;;-144.47;84.61;52653.50;5047659;28;20031;-69
2023/06/29 05:39:10;;;;;;;13.48;2.80;;;;;;;-144.47;82.30;52629.69;5054462;28;20625;-69
2023/06/29 05:41:37;;;;;;;9.60;3.17;;;;;;;-144.47;79.44;52625.72;5057483;28;20028;-65
2023/06/29 05:44:03;;;;;;;7.28;2.40;;;;;;;-144.47;79.50;52635.63;5049678;28;20043;-70
2023/06/29 05:46:28;;;;;;;6.90;2.50;;;;;;;-144.47;79.76;52639.59;5058265;28;20154;-67
2023/06/29 05:48:53;;;;;;;14.52;2.80;;;;;;;-144.47;79.96;52609.81;5053152;28;20017;-70
2023/06/29 05:51:19;;;;;;;19.88;2.88;;;;;;;-144.47;79.39;52635.63;5048051;28;20032;-70
2023/06/29 05:53:44;;;;;;;7.05;2.65;;;;;;;-144.47;78.59;52619.75;5049282;28;20028;-68
2023/06/29 05:56:09;;;;;;;9.30;2.70;;;;;;;-144.47;77.77;52619.75;5069128;28;20465;-68
2023/06/29 05:58:35;;;;;;;6.45;2.30;;;;;;;-144.47;77.92;52609.81;5054476;28;20414;-68
2023/06/29 06:01:01;;;;;;;6.10;2.33;;;;;;;-144.47;77.90;52619.75;5059827;28;20025;-69
2023/06/29 06:03:26;;;;;;;7.03;2.13;;;;;;;-144.47;77.75;52631.66;5061882;28;20513;-71
2023/06/29 06:05:51;;;;;;;8.90;2.65;;;;;;;-144.47;77.00;52647.56;5068901;28;20377;-70
2023/06/29 06:08:17;;;;;;;18.23;4.30;;;;;;;-144.47;76.59;52625.72;5068824;28;20095;-70
2023/06/29 06:10:42;;;;;;;9.18;2.97;;;;;;;-144.47;76.26;52631.66;5069369;28;20480;-70
2023/06/29 06:13:08;;;;;;;7.97;3.30;;;;;;;-144.47;76.23;52621.72;5057928;28;20036;-70
2023/06/29 06:15:34;;;;;;;8.55;3.30;;;;;;;-144.47;75.80;52605.84;5052517;28;20040;-69
2023/06/29 06:17:59;;;;;;;10.80;2.38;;;;;;;-144.47;75.90;52639.59;5059493;28;20556;-69
2023/06/29 06:20:24;;;;;;;15.93;2.80;;;;;;;-144.47;75.57;52621.72;5069206;28;20025;-66
2023/06/29 06:22:50;;;;;;;9.73;1.95;;;;;;;-144.47;74.45;52649.53;5072023;28;20012;-71
2023/06/29 06:25:17;;;;;;;8.75;2.40;;;;;;;-144.47;74.10;52613.78;5058901;28;20032;-68
2023/06/29 06:27:43;;;;;;;7.07;2.30;;;;;;;-144.47;73.46;52653.50;5062728;28;20028;-71
2023/06/29 06:30:09;;;;;;;5.65;2.38;;;;;;;-144.47;73.35;52619.75;5059573;28;20020;-68
2023/06/29 06:32:36;;;;;;;6.03;2.47;;;;;;;-144.47;73.07;52641.59;5059637;28;20031;-69
2023/06/29 06:35:03;;;;;;;6.68;2.00;;;;;;;-144.47;72.07;52623.72;5049104;28;20470;-70
2023/06/29 06:37:29;;;;;;;8.90;2.20;;;;;;;-144.47;71.62;52637.63;5060799;28;20021;-70
2023/06/29 06:39:54;;;;;;;7.85;1.90;;;;;;;-144.47;69.00;52653.50;5057019;28;20402;-66
2023/06/29 06:42:20;;;;;;;6.88;1.80;;;;;;;-144.47;67.74;52655.50;5062606;28;20161;-70
2023/06/29 06:44:52;;;;;;;14.25;2.00;;;;;;;-144.47;65.08;52599.88;5067544;28;20570;-70
2023/06/29 06:47:18;;;;;;;4.55;1.67;;;;;;;-144.47;64.95;52631.66;5052381;28;20094;-68
2023/06/29 06:49:43;;;;;;;4.95;1.52;;;;;;;-144.47;64.47;52641.59;5069668;28;20474;-69
2023/06/29 06:52:09;;;;;;;9.05;1.60;;;;;;;-144.47;62.43;52633.66;5069825;28;20231;-71
2023/06/29 06:54:34;;;;;;;7.20;1.80;;;;;;;-144.47;62.89;52619.75;5067265;28;20378;-69
2023/06/29 06:56:59;;;;;;;5.45;1.60;;;;;;;-144.47;62.23;52617.75;5050266;28;20482;-71
2023/06/29 06:59:25;;;;;;;4.30;1.48;;;;;;;-144.47;62.22;52621.72;5064453;28;20052;-67
2023/06/29 07:01:50;;;;;;;10.45;2.30;;;;;;;-144.47;61.89;52629.69;5053906;28;20118;-69
2023/06/29 07:04:16;;;;;;;10.60;2.35;;;;;;;-144.47;60.05;52633.66;5050576;28;20414;-70
2023/06/29 07:06:41;;;;;;;6.13;1.55;;;;;;;-144.47;59.95;52607.84;5052908;28;20020;-70
2023/06/29 07:09:07;;;;;;;7.38;1.80;;;;;;;-144.47;59.97;52661.44;5064956;28;20021;-72
2023/06/29 07:11:34;;;;;;;5.60;1.92;;;;;;;-144.47;59.98;52653.50;5065632;28;20095;-72
2023/06/29 07:13:59;;;;;;;5.25;1.40;;;;;;;-144.47;59.04;52625.72;5059175;28;20500;-70
2023/06/29 07:16:25;;;;;;;5.20;1.52;;;;;;;-144.47;58.28;52627.69;5048268;28;20090;-70
2023/06/29 07:19:12;;;;;;;4.60;1.70;;;;;;;-144.47;58.53;52637.63;5061815;28;20027;-74
2023/06/29 07:21:37;;;;;;;11.10;1.92;;;;;;;-144.47;58.12;52629.69;5058507;28;20024;-68
2023/06/29 07:24:03;;;;;;;9.50;1.63;;;;;;;-144.47;57.46;52615.78;5061901;28;20021;-73
2023/06/29 07:26:28;;;;;;;8.77;1.98;;;;;;;-144.47;56.04;52667.41;5057620;28;20020;-70
2023/06/29 07:28:54;;;;;;;9.02;1.60;;;;;;;-144.47;56.37;52615.78;5056582;28;20383;-71
2023/06/29 07:31:26;;;;;;;13.93;1.70;;;;;;;-144.47;56.89;52627.69;5068518;28;20024;-74
2023/06/29 07:33:53;;;;;;;10.82;2.35;;;;;;;-144.47;55.90;52601.88;5053222;28;20032;-68
2023/06/29 07:36:20;;;;;;;5.88;1.70;;;;;;;-144.47;55.55;52623.72;5055512;28;20312;-68
2023/06/29 07:38:46;;;;;;;7.32;1.80;;;;;;;-144.47;55.86;52637.63;5062860;28;20031;-73
2023/06/29 07:41:11;;;;;;;10.07;1.92;;;;;;;-144.47;56.06;52643.56;5057133;28;20024;-72
2023/06/29 07:43:36;;;;;;;13.70;1.90;;;;;;;-144.47;54.94;52651.53;5070991;28;20024;-72
2023/06/29 07:46:02;;;;;;;5.57;1.60;;;;;;;-144.47;54.95;52615.78;5070441;28;20101;-68
2023/06/29 07:48:28;;;;;;;7.70;1.63;;;;;;;-144.47;53.61;52619.75;5064838;28;20017;-68
2023/06/29 07:50:54;;;;;;;5.75;1.60;;;;;;;-144.47;54.59;52625.72;5071185;28;20035;-70
2023/06/29 07:53:19;;;;;;;13.73;2.35;;;;;;;-144.47;54.81;52643.56;5055763;28;20050;-70
2023/06/29 07:55:44;;;;;;;5.50;1.60;;;;;;;-144.47;54.16;52627.69;5062873;28;20036;-72
2023/06/29 07:58:10;;;;;;;7.97;1.95;;;;;;;-144.47;54.28;52649.53;5070515;28;20078;-69
2023/06/29 08:00:35;;;;;;;10.75;1.77;;;;;;;-144.47;52.34;52641.59;5070821;28;20028;-69
2023/06/29 08:03:00;;;;;;;10.45;1.80;;;;;;;-144.47;51.45;52621.72;5065313;28;20056;-70
2023/06/29 08:05:26;;;;;;;16.02;2.17;;;;;;;-144.47;51.58;52637.63;5049876;28;20127;-72
2023/06/29 08:07:51;;;;;;;9.23;2.40;;;;;;;-144.47;51.34;52635.63;5063502;28;20104;-68
2023/06/29 08:10:17;;;;;;;8.93;1.80;;;;;;;-144.47;50.94;52643.56;5061628;28;20413;-69
2023/06/29 08:12:42;;;;;;;16.85;1.60;;;;;;;-144.47;50.03;52609.81;5056755;28;20056;-71
2023/06/29 08:15:09;;;;;;;11.50;2.20;;;;;;;-144.47;49.21;52651.53;5069356;28;20021;-70
2023/06/29 08:17:34;;;;;;;8.35;1.90;;;;;;;-144.47;48.84;52633.66;5063502;28;20020;-71
2023/06/29 08:20:00;;;;;;;9.10;1.42;;;;;;;-144.47;48.56;52663.44;5061166;28;20028;-69
2023/06/29 08:22:25;;;;;;;12.57;1.77;;;;;;;-144.47;48.65;52657.47;5066228;28;20024;-70
2023/06/29 08:24:51;;;;;;;5.50;1.95;;;;;;;-144.47;49.13;52671.38;5050454;28;20067;-67
2023/06/29 08:27:16;;;;;;;5.55;1.70;;;;;;;-144.47;47.27;52651.53;5067845;28;20141;-68
2023/06/29 08:29:42;;;;;;;6.35;1.63;;;;;;;-144.47;45.51;52641.59;5053531;28;20471;-71
2023/06/29 08:32:08;;;;;;;7.30;1.27;;;;;;;-144.47;45.65;52615.78;5049861;28;20394;-67
2023/06/29 08:34:33;;;;;;;5.25;1.60;;;;;;;-144.47;45.63;52645.56;5043982;28;20155;-71
2023/06/29 08:36:58;;;;;;;8.90;2.05;;;;;;;-144.47;45.73;52643.56;5049505;28;20025;-69
2023/06/29 08:39:24;;;;;;;4.47;1.50;;;;;;;-144.47;45.47;52613.78;5060012;28;20040;-72
2023/06/29 08:41:51;;;;;;;10.20;1.98;;;;;;;-144.47;45.28;52635.63;5068638;28;20021;-71
2023/06/29 08:44:16;;;;;;;6.90;1.80;;;;;;;-144.47;45.09;52639.59;5069489;28;20492;-69
2023/06/29 08:46:43;;;;;;;9.13;1.73;;;;;;;-144.47;44.76;52645.56;5060447;28;20071;-71
2023/06/29 08:49:11;;;;;;;5.40;1.45;;;;;;;-144.47;43.92;52671.38;5070295;28;20073;-71
2023/06/29 08:51:39;;;;;;;9.45;1.40;;;;;;;-144.47;43.86;52689.25;5054153;28;20385;-68
2023/06/29 08:54:06;;;;;;;4.88;1.45;;;;;;;-144.47;42.91;52645.56;5050727;28;20029;-73
2023/06/29 08:56:33;;;;;;;6.57;1.73;;;;;;;-144.47;42.84;52665.44;5051050;28;20021;-70
2023/06/29 08:58:59;;;;;;;5.45;1.30;;;;;;;-144.47;42.93;52677.34;5070152;28;20493;-72
2023/06/29 09:01:25;;;;;;;7.80;1.70;;;;;;;-144.47;43.25;52677.34;5054632;28;20024;-69
2023/06/29 09:03:51;;;;;;;3.92;1.52;;;;;;;-144.47;41.81;52659.47;5056851;28;20535;-68
2023/06/29 09:06:17;;;;;;;4.22;1.50;;;;;;;-144.47;42.22;52665.44;5067895;28;20059;-69
2023/06/29 09:08:43;;;;;;;5.72;1.63;;;;;;;-144.47;41.73;52645.56;5049299;28;20024;-70
2023/06/29 09:11:08;;;;;;;3.70;1.30;;;;;;;-144.47;42.12;52699.19;5062947;28;20346;-70
2023/06/29 09:13:34;;;;;;;3.90;1.30;;;;;;;-144.47;42.27;52651.53;5057140;28;20017;-71
2023/06/29 09:16:00;;;;;;;7.07;1.52;;;;;;;-144.47;42.20;52667.41;5048755;28;20021;-69
2023/06/29 09:18:27;;;;;;;2.92;1.40;;;;;;;-144.47;41.77;52661.44;5060837;28;20035;-71
2023/06/29 09:20:57;;;;;;;5.18;1.60;;;;;;;-144.47;41.50;52673.38;5069682;28;20178;-71
2023/06/29 09:23:25;;;;;;;6.20;1.20;;;;;;;-144.47;40.62;52653.50;5069548;28;20021;-69
2023/06/29 09:25:53;;;;;;;5.43;2.13;;;;;;;-144.47;40.80;52665.44;5069531;28;20032;-69
2023/06/29 09:28:19;;;;;;;4.35;1.50;;;;;;;-144.47;41.05;52653.50;5070260;28;20105;-70
2023/06/29 09:30:45;;;;;;;2.92;1.27;;;;;;;-144.47;41.07;52657.47;5067968;28;20504;-70
2023/06/29 09:33:12;;;;;;;3.92;1.63;;;;;;;-144.47;40.80;52669.41;5053794;28;20021;-71
2023/06/29 09:35:40;;;;;;;3.87;1.57;;;;;;;-144.47;40.70;52665.44;5049229;28;20395;-69
2023/06/29 09:38:06;;;;;;;3.10;1.40;;;;;;;-144.47;40.46;52649.53;5049084;28;20266;-71
2023/06/29 09:40:44;;;;;;;4.45;1.70;;;;;;;-144.47;40.80;52629.69;5051545;28;20498;-70
2023/06/29 09:43:34;;;;;;;4.82;1.40;;;;;;;-144.47;41.07;52655.50;5069148;28;20016;-67
2023/06/29 09:46:06;;;;;;;7.68;1.92;;;;;;;-144.47;41.44;52677.34;5050677;28;20037;-71
2023/06/29 09:48:31;;;;;;;10.10;1.98;;;;;;;-144.47;41.23;52653.50;5053377;28;20112;-71
2023/06/29 09:50:57;;;;;;;6.75;2.00;;;;;;;-144.47;40.94;52685.28;5053414;28;20108;-71
2023/06/29 09:53:32;;;;;;;4.75;1.67;;;;;;;-144.47;41.06;52665.44;5050448;28;20045;-69
2023/06/29 09:55:59;;;;;;;6.72;1.85;;;;;;;-144.47;41.23;52705.16;5045802;28;20079;-71
2023/06/29 09:58:26;;;;;;;7.18;1.77;;;;;;;-144.47;41.08;52693.22;5066164;28;20521;-69
2023/06/29 10:00:53;;;;;;;4.95;1.60;;;;;;;-144.47;40.88;52699.19;5065732;28;20032;-71
2023/06/29 10:03:19;;;;;;;3.15;1.40;;;;;;;-144.47;40.68;52677.34;5052187;28;20041;-70
2023/06/29 10:05:46;;;;;;;7.47;1.58;;;;;;;-144.47;40.83;52669.41;5050868;28;20086;-71
2023/06/29 10:08:16;;;;;;;10.23;1.90;;;;;;;-144.47;40.58;52679.31;5055687;28;20025;-71
2023/06/29 10:10:42;;;;;;;8.25;1.42;;;;;;;-144.47;40.84;52659.47;5072813;28;20044;-71
2023/06/29 10:13:08;;;;;;;5.10;1.60;;;;;;;-144.47;40.44;52699.19;5067055;28;20028;-74
2023/06/29 10:15:36;;;;;;;5.90;1.52;;;;;;;-144.47;40.43;52687.28;5056788;28;20025;-71
2023/06/29 10:18:22;;;;;;;4.53;1.50;;;;;;;-144.47;40.16;52687.28;5051409;28;20028;-70
2023/06/29 10:20:48;;;;;;;6.15;1.70;;;;;;;-144.47;39.86;52705.16;5071962;28;20022;-72
2023/06/29 10:23:16;;;;;;;9.90;1.58;;;;;;;-144.47;39.93;52677.34;5072627;28;20016;-70
2023/06/29 10:25:46;;;;;;;5.28;1.80;;;;;;;-144.47;39.34;52730.97;5058030;28;20027;-71
2023/06/29 10:28:12;;;;;;;6.20;1.50;;;;;;;-144.47;39.04;52697.19;5052847;28;20041;-69
2023/06/29 10:30:45;;;;;;;7.22;2.00;;;;;;;-144.47;39.34;52691.25;5051520;28;20382;-71
2023/06/29 10:33:11;;;;;;;9.23;1.67;;;;;;;-144.47;38.98;52701.19;5055006;28;20025;-67
2023/06/29 10:35:36;;;;;;;6.65;1.30;;;;;;;-144.47;39.08;52717.06;5051430;28;20028;-71
2023/06/29 10:38:08;;;;;;;5.57;1.33;;;;;;;-144.47;38.77;52705.16;5056055;28;20654;-71
2023/06/29 10:40:48;;;;;;;5.88;1.52;;;;;;;-144.47;38.52;52695.22;5052150;28;20100;-70
2023/06/29 10:43:14;;;;;;;4.45;1.48;;;;;;;-144.47;38.54;52717.06;5048132;28;20016;-72
2023/06/29 10:45:40;;;;;;;6.57;2.08;;;;;;;-144.47;38.45;52689.25;5051246;28;20509;-70
2023/06/29 10:48:10;;;;;;;9.18;1.50;;;;;;;-144.47;38.59;52723.03;5054901;28;20039;-68
2023/06/29 10:50:47;;;;;;;7.07;1.77;;;;;;;-144.47;38.17;52721.03;5050577;28;20033;-70
2023/06/29 10:53:14;;;;;;;4.55;1.45;;;;;;;-144.47;37.54;52699.19;5045616;28;20486;-72
2023/06/29 10:55:54;;;;;;;4.53;1.50;;;;;;;-144.47;37.27;52727.00;5050597;28;20393;-70
2023/06/29 10:58:31;;;;;;;5.63;1.58;;;;;;;-144.47;37.56;52715.06;5049027;28;20709;-70
2023/06/29 11:00:57;;;;;;;9.48;2.05;;;;;;;-144.47;37.35;52719.06;5051161;28;20037;-70
2023/06/29 11:03:24;;;;;;;3.13;1.38;;;;;;;-144.47;36.89;52715.06;5057588;28;20093;-74
2023/06/29 11:05:54;;;;;;;6.50;1.80;;;;;;;-144.47;37.11;52727.00;5049020;28;20024;-69
2023/06/29 11:08:21;;;;;;;5.35;1.58;;;;;;;-144.47;35.85;52723.03;5054891;28;20024;-68
2023/06/29 11:10:46;;;;;;;2.50;1.45;;;;;;;-144.47;36.25;52721.03;5051400;28;20124;-70
2023/06/29 11:13:12;;;;;;;4.85;1.50;;;;;;;-144.47;36.47;52742.88;5052662;28;20024;-71